Time;durP1;ratioP1;P1;durP2;ratioP2;P2;SDS_P1;SDS_P2;PMS_P1;PMS_P2;Temp;Humidity;BMP_temperature;BMP_pressure;BME280_temperature;BME280_humidity;BME280_pressure;Samples;Min_cycle;Max_cycle;Signal;HPM_P1;HPM_P2
2020/12/15 00:00:40;;;;;;;82.47;40.38;;;8.20;99.90;;;;;;5071540;28;20128;-78
2020/12/15 00:03:05;;;;;;;69.00;37.75;;;8.20;99.90;;;;;;5070342;28;20025;-78
2020/12/15 00:05:31;;;;;;;76.35;39.78;;;8.20;99.90;;;;;;5052075;28;20060;-78
2020/12/15 00:07:57;;;;;;;82.88;39.92;;;8.20;99.90;;;;;;5051387;28;20039;-78
2020/12/15 00:10:22;;;;;;;78.55;42.88;;;8.20;99.90;;;;;;5050210;28;20028;-78
2020/12/15 00:12:48;;;;;;;72.05;39.42;;;8.10;99.90;;;;;;5050960;28;20032;-78
2020/12/15 00:15:13;;;;;;;69.95;40.03;;;8.10;99.90;;;;;;5071338;28;20055;-79
2020/12/15 00:17:39;;;;;;;73.18;39.90;;;8.10;99.90;;;;;;5071222;28;20089;-79
2020/12/15 00:20:07;;;;;;;70.80;40.40;;;8.10;99.90;;;;;;5070193;28;20040;-78
2020/12/15 00:22:34;;;;;;;76.00;41.30;;;8.00;99.90;;;;;;5072575;28;20046;-78
2020/12/15 00:25:00;;;;;;;75.55;41.75;;;8.10;99.90;;;;;;5057276;28;20052;-77
2020/12/15 00:27:26;;;;;;;73.05;43.05;;;8.00;99.90;;;;;;5053941;28;20476;-78
2020/12/15 00:29:51;;;;;;;80.82;41.25;;;8.00;99.90;;;;;;5055059;28;20436;-78
2020/12/15 00:32:17;;;;;;;75.70;40.72;;;8.00;99.90;;;;;;5055178;28;20026;-78
2020/12/15 00:34:42;;;;;;;71.47;41.45;;;8.00;99.90;;;;;;5065513;28;20028;-78
2020/12/15 00:37:08;;;;;;;76.60;39.83;;;8.00;99.90;;;;;;5074943;28;20070;-78
2020/12/15 00:39:34;;;;;;;80.43;41.03;;;8.00;99.90;;;;;;5074960;28;20388;-78
2020/12/15 00:41:59;;;;;;;80.25;42.38;;;8.00;99.90;;;;;;5074919;28;20025;-78
2020/12/15 00:44:25;;;;;;;79.38;41.47;;;8.00;99.90;;;;;;5058952;28;20079;-78
2020/12/15 00:46:51;;;;;;;73.78;39.47;;;8.00;99.90;;;;;;5054757;28;20051;-79
2020/12/15 00:49:17;;;;;;;75.38;38.63;;;8.00;99.90;;;;;;5053511;28;20397;-78
2020/12/15 00:51:45;;;;;;;76.55;39.90;;;8.00;99.90;;;;;;5054719;28;20366;-78
2020/12/15 00:54:11;;;;;;;68.88;37.47;;;8.00;99.90;;;;;;5063650;28;20541;-79
2020/12/15 00:56:40;;;;;;;83.03;37.15;;;8.00;99.90;;;;;;5074392;28;20028;-78
2020/12/15 00:59:05;;;;;;;71.22;38.33;;;7.90;99.90;;;;;;5074406;28;20031;-78
2020/12/15 01:01:31;;;;;;;77.47;37.85;;;8.00;99.90;;;;;;5074583;28;20029;-78
2020/12/15 01:03:56;;;;;;;64.68;36.10;;;8.00;99.90;;;;;;5069394;28;20085;-78
2020/12/15 01:06:22;;;;;;;68.70;34.92;;;8.00;99.90;;;;;;5054318;28;20033;-78
2020/12/15 01:08:47;;;;;;;66.30;33.90;;;8.00;99.90;;;;;;5054485;28;20036;-78
2020/12/15 01:11:13;;;;;;;69.05;37.15;;;8.00;99.90;;;;;;5054449;28;20029;-78
2020/12/15 01:13:39;;;;;;;65.18;34.85;;;7.90;99.90;;;;;;5060648;28;20048;-77
2020/12/15 01:16:05;;;;;;;71.03;35.65;;;7.90;99.90;;;;;;5072814;28;20118;-78
2020/12/15 01:18:31;;;;;;;65.95;35.70;;;7.90;99.90;;;;;;5074135;28;20032;-78
2020/12/15 01:20:57;;;;;;;66.38;36.17;;;7.90;99.90;;;;;;5074337;28;20024;-78
2020/12/15 01:23:22;;;;;;;75.00;37.28;;;7.90;99.90;;;;;;5071235;28;20054;-78
2020/12/15 01:25:48;;;;;;;60.78;34.88;;;7.90;99.90;;;;;;5052513;28;20074;-78
2020/12/15 01:28:14;;;;;;;64.22;36.00;;;7.90;99.90;;;;;;5071390;28;20065;-78
2020/12/15 01:30:39;;;;;;;63.20;36.05;;;7.80;99.90;;;;;;5074088;28;20024;-78
2020/12/15 01:33:05;;;;;;;70.30;35.00;;;7.70;99.90;;;;;;5065175;28;20044;-78
2020/12/15 01:35:30;;;;;;;71.10;35.67;;;7.70;99.90;;;;;;5051365;28;20082;-77
2020/12/15 01:37:56;;;;;;;65.80;34.25;;;7.70;99.90;;;;;;5053804;28;20090;-78
2020/12/15 01:40:21;;;;;;;67.18;34.63;;;7.70;99.90;;;;;;5053893;28;20034;-78
2020/12/15 01:42:47;;;;;;;64.70;33.72;;;7.60;99.90;;;;;;5055040;28;20037;-78
2020/12/15 01:45:13;;;;;;;64.65;35.05;;;7.60;99.90;;;;;;5073572;28;20020;-78
2020/12/15 01:47:38;;;;;;;60.83;34.72;;;7.60;99.90;;;;;;5072301;28;20020;-78
2020/12/15 01:50:04;;;;;;;64.90;32.72;;;7.60;99.90;;;;;;5072426;28;20496;-78
2020/12/15 01:52:31;;;;;;;55.58;31.70;;;7.60;99.90;;;;;;5073640;28;20143;-78
2020/12/15 01:54:59;;;;;;;61.50;31.05;;;7.60;99.90;;;;;;5055273;28;20025;-77
2020/12/15 01:57:25;;;;;;;51.10;31.10;;;7.60;99.90;;;;;;5053249;28;20017;-78
2020/12/15 01:59:51;;;;;;;51.22;31.23;;;7.60;99.90;;;;;;5053371;28;20029;-78
2020/12/15 02:02:19;;;;;;;51.25;29.10;;;7.50;99.90;;;;;;5052180;28;20055;-78
2020/12/15 02:04:45;;;;;;;50.80;29.83;;;7.50;99.90;;;;;;5064560;28;20027;-78
2020/12/15 02:07:11;;;;;;;53.03;31.00;;;7.50;99.90;;;;;;5071952;28;20020;-78
2020/12/15 02:09:37;;;;;;;57.60;29.27;;;7.50;99.90;;;;;;5073336;28;20250;-78
2020/12/15 02:12:03;;;;;;;50.17;28.70;;;7.50;99.90;;;;;;5071948;28;20026;-78
2020/12/15 02:14:28;;;;;;;54.45;29.40;;;7.60;99.90;;;;;;5058083;28;20029;-78
2020/12/15 02:16:55;;;;;;;51.88;28.10;;;7.60;99.90;;;;;;5051827;28;20538;-78
2020/12/15 02:19:21;;;;;;;46.55;26.52;;;7.60;99.90;;;;;;5051906;28;20029;-78
2020/12/15 02:21:57;;;;;;;44.53;26.83;;;7.60;99.90;;;;;;5054192;28;20094;-78
2020/12/15 02:24:23;;;;;;;40.90;27.60;;;7.60;99.90;;;;;;5051845;28;20036;-78
2020/12/15 02:26:50;;;;;;;41.30;25.65;;;7.60;99.90;;;;;;5052722;28;20556;-78
2020/12/15 02:29:15;;;;;;;41.00;26.45;;;7.60;99.90;;;;;;5064323;28;20032;-78
2020/12/15 02:31:42;;;;;;;43.75;26.85;;;7.60;99.90;;;;;;5071546;28;20476;-78
2020/12/15 02:34:07;;;;;;;41.50;25.15;;;7.60;99.90;;;;;;5072666;28;20021;-78
2020/12/15 02:36:33;;;;;;;47.22;28.10;;;7.60;99.90;;;;;;5071391;28;20054;-78
2020/12/15 02:39:13;;;;;;;39.97;26.20;;;7.70;99.90;;;;;;5064878;28;20021;-78
2020/12/15 02:41:39;;;;;;;43.08;27.00;;;7.60;99.90;;;;;;5052628;28;20029;-78
2020/12/15 02:44:06;;;;;;;51.33;26.83;;;7.60;99.90;;;;;;5051157;28;20432;-78
2020/12/15 02:46:32;;;;;;;39.90;24.98;;;7.60;99.90;;;;;;5051973;28;20028;-78
2020/12/15 02:48:58;;;;;;;35.28;24.92;;;7.60;99.90;;;;;;5056606;28;20020;-78
2020/12/15 02:51:25;;;;;;;44.88;25.55;;;7.60;99.90;;;;;;5072513;28;20138;-77
2020/12/15 02:53:51;;;;;;;44.90;25.90;;;7.60;99.90;;;;;;5072131;28;20016;-78
2020/12/15 02:56:21;;;;;;;44.35;26.30;;;7.60;99.90;;;;;;5072561;28;20024;-78
2020/12/15 02:58:46;;;;;;;40.47;25.23;;;7.60;99.90;;;;;;5071538;28;20538;-78
2020/12/15 03:01:12;;;;;;;41.00;26.33;;;7.50;99.90;;;;;;5072280;28;20036;-78
2020/12/15 03:03:38;;;;;;;42.95;28.02;;;7.60;99.90;;;;;;5072217;28;20028;-78
2020/12/15 03:06:03;;;;;;;48.35;28.42;;;7.50;99.90;;;;;;5071952;28;20508;-78
2020/12/15 03:08:29;;;;;;;44.13;28.20;;;7.50;99.90;;;;;;5066962;28;20382;-78
2020/12/15 03:10:54;;;;;;;47.22;27.50;;;7.50;99.90;;;;;;5052185;28;20025;-78
2020/12/15 03:13:20;;;;;;;44.60;28.33;;;7.60;99.90;;;;;;5052099;28;20037;-78
2020/12/15 03:15:45;;;;;;;48.40;28.05;;;7.60;99.90;;;;;;5050433;28;20040;-78
2020/12/15 03:18:11;;;;;;;43.58;28.27;;;7.50;99.90;;;;;;5052094;28;20112;-78
2020/12/15 03:20:36;;;;;;;43.92;28.42;;;7.50;99.90;;;;;;5068836;28;20024;-78
2020/12/15 03:23:02;;;;;;;44.90;27.88;;;7.50;99.90;;;;;;5071913;28;20086;-78
2020/12/15 03:25:27;;;;;;;47.92;27.40;;;7.60;99.90;;;;;;5071473;28;20439;-77
2020/12/15 03:27:54;;;;;;;45.10;28.38;;;7.40;99.90;;;;;;5067918;28;20115;-78
2020/12/15 03:30:20;;;;;;;43.50;28.58;;;7.40;99.90;;;;;;5051260;28;20017;-78
2020/12/15 03:32:45;;;;;;;51.90;30.13;;;7.40;99.90;;;;;;5051858;28;20147;-78
2020/12/15 03:35:11;;;;;;;46.13;28.23;;;7.40;99.90;;;;;;5051643;28;20048;-77
2020/12/15 03:37:36;;;;;;;46.20;28.52;;;7.50;99.90;;;;;;5051616;28;20025;-77
2020/12/15 03:40:03;;;;;;;44.83;27.48;;;7.40;99.90;;;;;;5067928;28;20466;-78
2020/12/15 03:42:28;;;;;;;43.08;27.20;;;7.50;99.90;;;;;;5071429;28;20028;-78
2020/12/15 03:44:54;;;;;;;54.03;29.77;;;7.40;99.90;;;;;;5071064;28;20159;-78
2020/12/15 03:47:20;;;;;;;51.45;30.23;;;7.40;99.90;;;;;;5071730;28;20064;-78
2020/12/15 03:49:46;;;;;;;45.95;27.67;;;7.40;99.90;;;;;;5060231;28;20084;-78
2020/12/15 03:52:11;;;;;;;43.45;27.17;;;7.30;99.90;;;;;;5050238;28;20025;-78
2020/12/15 03:54:37;;;;;;;44.28;28.30;;;7.40;99.90;;;;;;5051342;28;20025;-78
2020/12/15 03:57:02;;;;;;;51.83;30.27;;;7.40;99.90;;;;;;5050577;28;20032;-78
2020/12/15 03:59:28;;;;;;;44.10;28.38;;;7.40;99.90;;;;;;5070005;28;20028;-78
2020/12/15 04:01:53;;;;;;;48.22;29.58;;;7.40;99.90;;;;;;5075791;28;20504;-78
2020/12/15 04:04:19;;;;;;;55.70;29.70;;;7.40;99.90;;;;;;5075616;28;20498;-77
2020/12/15 04:06:45;;;;;;;44.17;28.05;;;7.30;99.90;;;;;;5074190;28;20536;-78
2020/12/15 04:09:10;;;;;;;48.50;27.85;;;7.40;99.90;;;;;;5066127;28;20104;-78
2020/12/15 04:11:36;;;;;;;43.60;27.67;;;7.40;99.90;;;;;;5055595;28;20250;-78
2020/12/15 04:14:01;;;;;;;43.00;26.88;;;7.40;99.90;;;;;;5055185;28;20029;-78
2020/12/15 04:16:27;;;;;;;45.25;27.55;;;7.40;99.90;;;;;;5055482;28;20041;-78
2020/12/15 04:18:52;;;;;;;43.72;27.67;;;7.30;99.90;;;;;;5059027;28;20536;-78
2020/12/15 04:21:18;;;;;;;44.45;27.88;;;7.30;99.90;;;;;;5075420;28;20052;-78
2020/12/15 04:23:44;;;;;;;49.95;26.70;;;7.30;99.90;;;;;;5075121;28;20086;-78
2020/12/15 04:26:09;;;;;;;45.83;28.85;;;7.30;99.90;;;;;;5075097;28;20052;-78
2020/12/15 04:28:35;;;;;;;37.15;26.63;;;7.30;99.90;;;;;;5067862;28;20074;-78
2020/12/15 04:31:00;;;;;;;42.45;27.52;;;7.30;99.90;;;;;;5053836;28;20028;-78
2020/12/15 04:33:26;;;;;;;49.42;27.45;;;7.30;99.90;;;;;;5055172;28;20025;-78
2020/12/15 04:35:51;;;;;;;46.78;29.35;;;7.30;99.90;;;;;;5054796;28;20044;-78
2020/12/15 04:38:17;;;;;;;48.45;27.50;;;7.30;99.90;;;;;;5056708;28;20040;-79
2020/12/15 04:40:42;;;;;;;47.22;27.98;;;7.30;99.90;;;;;;5073751;28;20028;-78
2020/12/15 04:43:10;;;;;;;50.10;29.73;;;7.30;99.90;;;;;;5074605;28;20024;-78
2020/12/15 04:45:35;;;;;;;45.75;27.13;;;7.30;99.90;;;;;;5073415;28;20028;-78
2020/12/15 04:48:06;;;;;;;46.92;28.48;;;7.30;99.90;;;;;;5074827;28;20095;-78
2020/12/15 04:50:35;;;;;;;45.80;28.45;;;7.30;99.90;;;;;;5056950;28;20451;-78
2020/12/15 04:53:08;;;;;;;49.78;29.73;;;7.30;99.90;;;;;;5053481;28;20501;-78
2020/12/15 04:55:34;;;;;;;47.63;28.95;;;7.30;99.90;;;;;;5053333;28;20025;-78
2020/12/15 04:58:00;;;;;;;45.17;28.67;;;7.20;99.90;;;;;;5055366;28;20052;-78
2020/12/15 05:00:27;;;;;;;62.60;29.48;;;7.20;99.90;;;;;;5074646;28;20141;-78
2020/12/15 05:02:53;;;;;;;52.78;29.55;;;7.20;99.90;;;;;;5074582;28;20052;-78
2020/12/15 05:05:22;;;;;;;51.22;29.95;;;7.20;99.90;;;;;;5072920;28;20032;-78
2020/12/15 05:07:48;;;;;;;49.58;29.75;;;7.20;99.90;;;;;;5074245;28;20060;-78
2020/12/15 05:10:15;;;;;;;49.35;29.90;;;7.20;99.90;;;;;;5056159;28;20044;-77
2020/12/15 05:12:41;;;;;;;50.65;30.00;;;7.20;99.90;;;;;;5053101;28;20021;-77
2020/12/15 05:15:11;;;;;;;46.75;30.85;;;7.20;99.90;;;;;;5054172;28;20029;-78
2020/12/15 05:17:39;;;;;;;59.50;30.33;;;7.20;99.90;;;;;;5054157;28;20102;-78
2020/12/15 05:20:05;;;;;;;53.83;31.48;;;7.20;99.90;;;;;;5067653;28;20016;-78
2020/12/15 05:22:45;;;;;;;62.25;31.38;;;7.20;99.90;;;;;;5074238;28;20036;-78
2020/12/15 05:25:25;;;;;;;59.28;31.50;;;7.20;99.90;;;;;;5073906;28;20036;-78
2020/12/15 05:27:52;;;;;;;59.25;32.30;;;7.20;99.90;;;;;;5072718;28;20032;-78
2020/12/15 05:30:18;;;;;;;48.85;30.67;;;7.20;99.90;;;;;;5054040;28;20025;-79
2020/12/15 05:32:55;;;;;;;57.63;31.83;;;7.20;99.90;;;;;;5052792;28;20032;-78
2020/12/15 05:35:28;;;;;;;57.65;31.73;;;7.20;99.90;;;;;;5052561;28;20484;-78
2020/12/15 05:37:57;;;;;;;53.40;32.55;;;7.10;99.90;;;;;;5053888;28;20025;-78
2020/12/15 05:40:23;;;;;;;52.75;29.73;;;7.20;99.90;;;;;;5071554;28;20055;-78
2020/12/15 05:42:57;;;;;;;52.00;31.95;;;7.20;99.90;;;;;;5073519;28;20496;-78
2020/12/15 05:45:23;;;;;;;55.03;33.30;;;7.20;99.90;;;;;;5073768;28;20081;-78
2020/12/15 05:47:51;;;;;;;48.67;30.83;;;7.10;99.90;;;;;;5073694;28;20036;-78
2020/12/15 05:50:25;;;;;;;58.78;33.70;;;7.20;99.90;;;;;;5056907;28;20120;-78
2020/12/15 05:52:57;;;;;;;59.03;33.58;;;7.10;99.90;;;;;;5053676;28;20017;-78
2020/12/15 05:55:23;;;;;;;57.27;34.63;;;7.10;99.90;;;;;;5053350;28;20060;-77
2020/12/15 05:57:51;;;;;;;46.80;30.40;;;7.10;99.90;;;;;;5054015;28;20060;-78
2020/12/15 06:00:17;;;;;;;56.78;33.25;;;7.10;99.90;;;;;;5072290;28;20040;-77
2020/12/15 06:02:43;;;;;;;52.55;32.15;;;7.20;99.90;;;;;;5073502;28;20104;-77
2020/12/15 06:05:09;;;;;;;53.83;32.92;;;7.10;99.90;;;;;;5071962;28;20032;-77
2020/12/15 06:07:35;;;;;;;46.30;30.88;;;7.10;99.90;;;;;;5071970;28;20025;-77
2020/12/15 06:10:03;;;;;;;48.72;29.00;;;7.10;99.90;;;;;;5055782;28;20469;-77
2020/12/15 06:12:29;;;;;;;49.33;27.50;;;7.10;99.90;;;;;;5053125;28;20040;-77
2020/12/15 06:14:54;;;;;;;44.78;25.58;;;7.10;99.90;;;;;;5051785;28;20029;-76
2020/12/15 06:17:21;;;;;;;41.83;28.15;;;7.20;99.90;;;;;;5051800;28;20029;-77
2020/12/15 06:19:53;;;;;;;43.15;28.63;;;7.10;99.90;;;;;;5052714;28;20033;-77
2020/12/15 06:22:23;;;;;;;41.90;27.77;;;7.10;99.90;;;;;;5052997;28;20543;-76
2020/12/15 06:24:59;;;;;;;42.08;27.52;;;7.10;99.90;;;;;;5052865;28;20544;-77
2020/12/15 06:27:35;;;;;;;42.92;26.27;;;7.10;99.90;;;;;;5051732;28;20025;-77
2020/12/15 06:30:05;;;;;;;41.70;27.20;;;7.10;99.90;;;;;;5070433;28;20077;-77
2020/12/15 06:32:31;;;;;;;43.83;27.20;;;7.10;99.90;;;;;;5071552;28;20361;-77
2020/12/15 06:34:56;;;;;;;46.03;28.38;;;7.10;99.90;;;;;;5072607;28;20032;-77
2020/12/15 06:37:24;;;;;;;46.05;28.90;;;7.10;99.90;;;;;;5072703;28;20032;-77
2020/12/15 06:40:03;;;;;;;46.72;29.23;;;7.10;99.90;;;;;;5056689;28;20036;-77
2020/12/15 06:42:29;;;;;;;50.05;29.92;;;7.10;99.90;;;;;;5051461;28;20021;-77
2020/12/15 06:45:08;;;;;;;44.30;29.15;;;7.10;99.90;;;;;;5052367;28;20029;-77
2020/12/15 06:47:37;;;;;;;48.22;29.73;;;7.10;99.90;;;;;;5052560;28;20133;-77
2020/12/15 06:50:14;;;;;;;47.63;30.77;;;7.00;99.90;;;;;;5065778;28;20158;-76
2020/12/15 06:52:40;;;;;;;51.03;32.83;;;7.00;99.90;;;;;;5072465;28;20020;-77
2020/12/15 06:55:06;;;;;;;54.13;34.75;;;7.00;99.90;;;;;;5071180;28;20503;-77
2020/12/15 06:57:33;;;;;;;55.65;33.70;;;7.00;99.90;;;;;;5071051;28;20024;-76
2020/12/15 07:00:00;;;;;;;49.25;33.65;;;7.00;99.90;;;;;;5052195;28;20032;-77
2020/12/15 07:02:30;;;;;;;61.13;33.28;;;7.00;99.90;;;;;;5052388;28;20024;-76
2020/12/15 07:05:17;;;;;;;50.45;31.23;;;7.00;99.90;;;;;;5052089;28;20021;-77
2020/12/15 07:07:48;;;;;;;55.08;34.38;;;7.00;99.90;;;;;;5050909;28;20083;-77
2020/12/15 07:10:14;;;;;;;60.80;34.03;;;6.90;99.90;;;;;;5067635;28;20472;-77
2020/12/15 07:12:42;;;;;;;58.38;33.85;;;6.90;99.90;;;;;;5072195;28;20028;-77
2020/12/15 07:15:11;;;;;;;54.92;34.00;;;7.00;99.90;;;;;;5050727;28;20025;-77
2020/12/15 07:17:37;;;;;;;57.05;33.42;;;7.00;99.90;;;;;;5051966;28;20055;-76
2020/12/15 07:20:03;;;;;;;55.08;32.50;;;6.90;99.90;;;;;;5064206;28;20388;-77
2020/12/15 07:22:28;;;;;;;53.25;32.08;;;7.00;99.90;;;;;;5070604;28;20028;-77
2020/12/15 07:24:55;;;;;;;52.92;31.38;;;6.90;99.90;;;;;;5071611;28;20028;-76
2020/12/15 07:27:23;;;;;;;56.22;32.95;;;6.90;99.90;;;;;;5071908;28;20032;-76
2020/12/15 07:29:53;;;;;;;51.60;32.10;;;6.90;99.90;;;;;;5070289;28;20038;-76
2020/12/15 07:32:18;;;;;;;50.20;30.52;;;6.80;99.90;;;;;;5068465;28;20420;-77
2020/12/15 07:34:44;;;;;;;50.80;30.88;;;6.90;99.90;;;;;;5050419;28;20013;-77
2020/12/15 07:37:17;;;;;;;51.65;30.65;;;6.90;99.90;;;;;;5051651;28;20074;-76
2020/12/15 07:39:43;;;;;;;47.63;30.70;;;6.90;99.90;;;;;;5051875;28;20033;-77
2020/12/15 07:42:09;;;;;;;45.97;30.17;;;6.90;99.90;;;;;;5051712;28;20041;-77
2020/12/15 07:44:34;;;;;;;49.88;31.35;;;6.90;99.90;;;;;;5068915;28;20151;-77
2020/12/15 07:47:01;;;;;;;46.17;29.52;;;6.90;99.90;;;;;;5070446;28;20040;-78
2020/12/15 07:49:27;;;;;;;54.83;30.52;;;6.90;99.90;;;;;;5071831;28;20032;-77
2020/12/15 07:51:53;;;;;;;44.58;30.33;;;6.90;99.90;;;;;;5071684;28;20017;-76
2020/12/15 07:54:19;;;;;;;55.03;31.75;;;6.80;99.90;;;;;;5056967;28;20029;-78
2020/12/15 07:56:47;;;;;;;47.70;30.77;;;6.80;99.90;;;;;;5051574;28;20029;-78
2020/12/15 07:59:15;;;;;;;46.58;30.15;;;6.80;99.90;;;;;;5051606;28;20140;-78
2020/12/15 08:01:41;;;;;;;55.50;31.92;;;6.80;99.90;;;;;;5059477;28;20154;-78
2020/12/15 08:04:12;;;;;;;52.65;31.75;;;6.80;99.90;;;;;;5061306;28;20040;-77
2020/12/15 08:06:49;;;;;;;51.90;31.25;;;6.80;99.90;;;;;;5051207;28;20033;-78
2020/12/15 08:09:16;;;;;;;48.00;31.23;;;6.80;99.90;;;;;;5051421;28;20025;-77
2020/12/15 08:11:47;;;;;;;48.47;31.25;;;6.80;99.90;;;;;;5050158;28;20392;-78
2020/12/15 08:14:14;;;;;;;51.63;30.02;;;6.70;99.90;;;;;;5063068;28;20074;-78
2020/12/15 08:16:41;;;;;;;50.60;31.20;;;6.80;99.90;;;;;;5071262;28;20039;-77
2020/12/15 08:19:07;;;;;;;45.03;30.33;;;6.70;99.90;;;;;;5071235;28;20032;-77
2020/12/15 08:21:45;;;;;;;47.80;31.00;;;6.70;99.90;;;;;;5071316;28;20028;-78
2020/12/15 08:24:12;;;;;;;53.75;30.25;;;6.70;99.90;;;;;;5063401;28;20032;-77
2020/12/15 08:26:42;;;;;;;48.30;32.47;;;6.70;99.90;;;;;;5064351;28;20087;-77
2020/12/15 08:29:12;;;;;;;46.47;29.67;;;6.70;99.90;;;;;;5064576;28;20119;-78
2020/12/15 08:31:40;;;;;;;46.90;30.58;;;6.80;99.90;;;;;;5054656;28;20026;-78
2020/12/15 08:34:24;;;;;;;52.72;30.02;;;6.80;99.90;;;;;;5049775;28;20021;-78
2020/12/15 08:36:53;;;;;;;53.33;30.35;;;6.80;99.90;;;;;;5051108;28;20056;-77
2020/12/15 08:39:28;;;;;;;49.47;28.75;;;6.80;99.90;;;;;;5051024;28;20102;-77
2020/12/15 08:41:59;;;;;;;52.72;31.08;;;6.80;99.90;;;;;;5052244;28;20116;-77
2020/12/15 08:44:26;;;;;;;49.92;31.05;;;6.80;99.90;;;;;;5069061;28;20048;-78
2020/12/15 08:46:56;;;;;;;45.95;29.17;;;6.80;99.90;;;;;;5070691;28;20025;-78
2020/12/15 08:49:23;;;;;;;54.47;29.95;;;6.80;99.90;;;;;;5054737;28;20067;-78
2020/12/15 08:51:50;;;;;;;51.42;31.30;;;6.80;99.90;;;;;;5071334;28;20056;-78
2020/12/15 08:54:19;;;;;;;46.05;30.63;;;6.90;99.90;;;;;;5074466;28;20020;-77
2020/12/15 08:56:45;;;;;;;55.10;32.17;;;6.90;99.90;;;;;;5073242;28;20028;-78
2020/12/15 08:59:12;;;;;;;50.38;30.75;;;6.90;99.90;;;;;;5074660;28;20050;-77
2020/12/15 09:01:39;;;;;;;48.15;31.17;;;6.90;99.90;;;;;;5062994;28;20032;-78
2020/12/15 09:04:05;;;;;;;50.47;30.08;;;6.90;99.90;;;;;;5051420;28;20036;-78
2020/12/15 09:06:35;;;;;;;53.78;31.45;;;6.90;99.90;;;;;;5053106;28;20039;-79
2020/12/15 09:09:01;;;;;;;49.50;30.80;;;6.90;99.90;;;;;;5054320;28;20025;-79
2020/12/15 09:11:26;;;;;;;55.88;32.10;;;6.90;99.90;;;;;;5068023;28;20758;-79
2020/12/15 09:14:00;;;;;;;50.22;30.33;;;7.00;99.90;;;;;;5074029;28;20020;-78
2020/12/15 09:16:37;;;;;;;;;;;7.00;99.90;;;;;;5074369;28;20036;-78
2020/12/15 09:19:13;;;;;;;56.83;29.17;;;7.10;99.90;;;;;;5074184;28;19909;-78
2020/12/15 09:21:40;;;;;;;52.97;29.83;;;7.10;99.90;;;;;;5058400;28;20413;-79
2020/12/15 09:24:08;;;;;;;52.53;30.67;;;7.10;99.90;;;;;;5071105;28;20428;-78
2020/12/15 09:26:36;;;;;;;57.25;31.08;;;7.10;99.90;;;;;;5073673;28;20159;-78
2020/12/15 09:29:09;;;;;;;48.88;30.83;;;7.10;99.90;;;;;;5074025;28;20477;-78
2020/12/15 09:31:35;;;;;;;56.97;30.52;;;7.20;99.90;;;;;;5071230;28;20032;-77
2020/12/15 09:34:01;;;;;;;44.00;29.55;;;7.20;99.90;;;;;;5093536;28;20034;-78
2020/12/15 09:36:27;;;;;;;48.67;28.17;;;7.20;99.90;;;;;;5068472;28;20055;-78
2020/12/15 09:38:53;;;;;;;49.08;30.05;;;7.20;99.90;;;;;;5053682;28;20090;-78
2020/12/15 09:41:18;;;;;;;50.80;29.10;;;7.20;99.90;;;;;;5058804;28;20056;-79
2020/12/15 09:43:44;;;;;;;52.95;29.65;;;7.20;99.90;;;;;;5072329;28;20025;-78
2020/12/15 09:46:09;;;;;;;51.88;30.40;;;7.20;99.90;;;;;;5064578;28;20087;-78
2020/12/15 09:48:35;;;;;;;56.40;32.47;;;7.20;99.90;;;;;;5053235;28;20025;-78
2020/12/15 09:51:01;;;;;;;52.88;30.65;;;7.20;99.90;;;;;;5061866;28;20032;-78
2020/12/15 09:53:27;;;;;;;55.38;31.27;;;7.20;99.90;;;;;;5073508;28;20090;-78
2020/12/15 09:55:53;;;;;;;53.83;30.58;;;7.30;99.90;;;;;;5070939;28;20488;-78
2020/12/15 09:58:18;;;;;;;54.05;29.45;;;7.30;99.90;;;;;;5073609;28;20448;-78
2020/12/15 10:00:44;;;;;;;54.25;29.77;;;7.30;99.90;;;;;;5068467;28;20060;-77
2020/12/15 10:03:09;;;;;;;59.95;31.95;;;7.40;99.90;;;;;;5051785;28;20401;-78
2020/12/15 10:05:35;;;;;;;49.70;31.65;;;7.40;99.90;;;;;;5057773;28;20108;-78
2020/12/15 10:08:01;;;;;;;59.15;34.40;;;7.40;99.90;;;;;;5072029;28;20027;-78
2020/12/15 10:10:26;;;;;;;58.05;33.58;;;7.40;99.90;;;;;;5073385;28;20020;-78
2020/12/15 10:12:52;;;;;;;58.20;32.88;;;7.40;99.90;;;;;;5053599;28;20029;-78
2020/12/15 10:15:17;;;;;;;58.65;31.95;;;7.40;99.90;;;;;;5053022;28;20397;-77
2020/12/15 10:17:43;;;;;;;60.95;32.80;;;7.40;99.90;;;;;;5052849;28;20028;-78
2020/12/15 10:20:09;;;;;;;54.30;30.58;;;7.50;99.90;;;;;;5052902;28;20108;-78
2020/12/15 10:22:35;;;;;;;57.85;32.10;;;7.60;99.90;;;;;;5071834;28;20553;-78
2020/12/15 10:25:01;;;;;;;56.78;32.42;;;7.60;99.90;;;;;;5065500;28;20021;-78
2020/12/15 10:27:26;;;;;;;61.85;33.90;;;7.60;99.90;;;;;;5065290;28;20107;-78
2020/12/15 10:29:52;;;;;;;64.50;33.55;;;7.60;99.90;;;;;;5059688;28;20107;-78
2020/12/15 10:32:17;;;;;;;64.20;33.65;;;7.60;99.90;;;;;;5072690;28;20445;-78
2020/12/15 10:34:43;;;;;;;70.50;35.15;;;7.70;99.90;;;;;;5062942;28;20090;-77
2020/12/15 10:37:09;;;;;;;72.10;35.75;;;7.70;99.90;;;;;;5050946;28;20144;-78
2020/12/15 10:39:34;;;;;;;61.90;34.10;;;7.60;99.90;;;;;;5057654;28;20033;-78
2020/12/15 10:42:00;;;;;;;78.78;36.78;;;7.70;99.90;;;;;;5052125;28;20021;-77
2020/12/15 10:44:25;;;;;;;63.20;33.75;;;7.60;99.90;;;;;;5051903;28;20029;-78
2020/12/15 10:46:51;;;;;;;61.38;34.08;;;7.70;99.90;;;;;;5051363;28;20025;-78
2020/12/15 10:49:17;;;;;;;71.47;34.90;;;7.70;99.90;;;;;;5048453;28;20485;-78
2020/12/15 10:51:47;;;;;;;72.22;38.00;;;7.70;99.90;;;;;;5070365;28;20023;-78
2020/12/15 10:54:12;;;;;;;63.28;33.03;;;7.70;99.90;;;;;;5070890;28;20032;-78
2020/12/15 10:56:38;;;;;;;71.07;34.85;;;7.80;99.90;;;;;;5051050;28;20033;-78
2020/12/15 10:59:04;;;;;;;67.28;35.45;;;7.80;99.90;;;;;;5050959;28;20078;-77
2020/12/15 11:01:29;;;;;;;76.32;34.10;;;7.80;99.90;;;;;;5050582;28;20500;-77
2020/12/15 11:03:56;;;;;;;72.95;35.13;;;7.80;99.90;;;;;;5050865;28;20137;-78
2020/12/15 11:06:24;;;;;;;75.30;35.03;;;7.80;99.90;;;;;;5079204;28;20044;-77
2020/12/15 11:08:49;;;;;;;73.93;35.45;;;7.80;99.90;;;;;;5050869;28;20017;-77
2020/12/15 11:11:15;;;;;;;72.63;35.83;;;7.90;99.90;;;;;;5060635;28;20032;-77
2020/12/15 11:13:41;;;;;;;76.10;36.33;;;7.90;99.90;;;;;;5070490;28;20584;-76
2020/12/15 11:16:07;;;;;;;81.45;38.53;;;7.90;99.90;;;;;;5060863;28;20036;-77
2020/12/15 11:18:32;;;;;;;82.85;37.50;;;8.00;99.90;;;;;;5050334;28;20481;-77
2020/12/15 11:20:58;;;;;;;77.05;37.20;;;7.90;99.90;;;;;;5056056;28;20040;-79
2020/12/15 11:23:23;;;;;;;81.85;36.40;;;8.00;99.90;;;;;;5070647;28;20036;-78
2020/12/15 11:25:49;;;;;;;83.78;37.42;;;7.90;99.90;;;;;;5070226;28;20025;-78
2020/12/15 11:28:15;;;;;;;80.82;36.45;;;7.90;99.90;;;;;;5071577;28;20542;-78
2020/12/15 11:30:41;;;;;;;82.80;37.28;;;7.90;99.90;;;;;;5060423;28;20063;-78
2020/12/15 11:33:06;;;;;;;92.05;39.45;;;7.90;99.90;;;;;;5051834;28;20446;-80
2020/12/15 11:35:34;;;;;;;76.47;36.42;;;7.90;99.90;;;;;;5050209;28;20087;-79
2020/12/15 11:38:00;;;;;;;105.60;41.47;;;7.90;99.90;;;;;;5071781;28;20024;-80
2020/12/15 11:40:26;;;;;;;95.40;39.80;;;7.80;99.90;;;;;;5086560;28;20027;-80
2020/12/15 11:42:56;;;;;;;97.07;40.22;;;7.80;99.90;;;;;;5071508;28;20048;-78
2020/12/15 11:45:23;;;;;;;107.18;40.55;;;7.80;99.90;;;;;;5050025;28;20032;-78
2020/12/15 11:47:49;;;;;;;91.22;42.50;;;7.70;99.90;;;;;;5050064;28;20519;-79
2020/12/15 11:50:14;;;;;;;84.57;41.25;;;7.90;99.90;;;;;;5050286;28;20029;-78
2020/12/15 11:52:40;;;;;;;91.88;40.38;;;7.90;99.90;;;;;;5071299;28;20017;-78
2020/12/15 11:55:06;;;;;;;105.47;42.90;;;7.80;99.90;;;;;;5071365;28;20056;-78
2020/12/15 11:57:31;;;;;;;120.20;42.60;;;7.80;99.90;;;;;;5071469;28;20017;-77
2020/12/15 11:59:57;;;;;;;100.60;41.08;;;7.90;99.90;;;;;;5058584;28;20496;-79
2020/12/15 12:02:23;;;;;;;98.43;41.28;;;7.90;99.90;;;;;;5051947;28;20025;-81
2020/12/15 12:04:48;;;;;;;96.82;41.55;;;7.90;99.90;;;;;;5051216;28;20052;-79
2020/12/15 12:07:14;;;;;;;111.40;41.10;;;7.90;99.90;;;;;;5069045;28;20025;-79
2020/12/15 12:09:40;;;;;;;101.53;41.40;;;7.90;99.90;;;;;;5069973;28;20024;-79
2020/12/15 12:12:06;;;;;;;111.85;43.80;;;7.90;99.90;;;;;;5070950;28;20029;-79
2020/12/15 12:14:31;;;;;;;125.30;43.85;;;7.90;99.90;;;;;;5069076;28;20120;-79
2020/12/15 12:16:57;;;;;;;118.03;42.88;;;7.90;99.90;;;;;;5071291;28;20036;-78
2020/12/15 12:19:23;;;;;;;125.10;44.03;;;7.90;99.90;;;;;;5054784;28;20029;-79
2020/12/15 12:21:48;;;;;;;87.82;39.42;;;7.90;99.90;;;;;;5053843;28;20036;-79
2020/12/15 12:24:14;;;;;;;132.02;46.83;;;7.90;99.90;;;;;;5054846;28;20481;-80
2020/12/15 12:26:39;;;;;;;118.88;45.17;;;7.90;99.90;;;;;;5053864;28;20060;-80
2020/12/15 12:29:05;;;;;;;128.55;43.40;;;7.80;99.90;;;;;;5053890;28;20427;-80
2020/12/15 12:31:31;;;;;;;135.45;44.90;;;7.80;99.90;;;;;;5071263;28;20024;-78
2020/12/15 12:33:57;;;;;;;178.23;46.28;;;7.80;99.90;;;;;;5074555;28;20112;-79